sensor_id;sensor_type;location;lat;lon;timestamp;P1;durP1;ratioP1;P2;durP2;ratioP2
62258;SDS011;48241;48.824;10.102;2023-05-10T00:00:07;2.25;;;1.25;;
62258;SDS011;48241;48.824;10.102;2023-05-10T00:02:34;1.67;;;1.20;;
62258;SDS011;48241;48.824;10.102;2023-05-10T00:04:59;1.10;;;1.00;;
62258;SDS011;48241;48.824;10.102;2023-05-10T00:07:26;1.98;;;0.90;;
62258;SDS011;48241;48.824;10.102;2023-05-10T00:09:51;1.15;;;1.05;;
62258;SDS011;48241;48.824;10.102;2023-05-10T00:12:17;1.15;;;1.05;;
62258;SDS011;48241;48.824;10.102;2023-05-10T00:14:42;1.98;;;0.95;;
62258;SDS011;48241;48.824;10.102;2023-05-10T00:17:08;1.13;;;0.95;;
62258;SDS011;48241;48.824;10.102;2023-05-10T00:19:33;1.10;;;1.00;;
62258;SDS011;48241;48.824;10.102;2023-05-10T00:21:59;1.65;;;1.08;;
62258;SDS011;48241;48.824;10.102;2023-05-10T00:24:24;1.15;;;1.00;;
62258;SDS011;48241;48.824;10.102;2023-05-10T00:26:50;3.63;;;1.10;;
62258;SDS011;48241;48.824;10.102;2023-05-10T00:29:15;1.52;;;1.05;;
62258;SDS011;48241;48.824;10.102;2023-05-10T00:31:41;2.08;;;0.93;;
62258;SDS011;48241;48.824;10.102;2023-05-10T00:34:06;0.82;;;0.82;;
62258;SDS011;48241;48.824;10.102;2023-05-10T00:36:32;1.98;;;1.00;;
62258;SDS011;48241;48.824;10.102;2023-05-10T00:38:58;2.45;;;1.20;;
62258;SDS011;48241;48.824;10.102;2023-05-10T00:41:23;1.35;;;1.00;;
62258;SDS011;48241;48.824;10.102;2023-05-10T00:43:49;1.85;;;1.10;;
62258;SDS011;48241;48.824;10.102;2023-05-10T00:46:15;1.50;;;0.88;;
62258;SDS011;48241;48.824;10.102;2023-05-10T00:48:41;1.10;;;1.00;;
62258;SDS011;48241;48.824;10.102;2023-05-10T00:51:08;4.03;;;1.00;;
62258;SDS011;48241;48.824;10.102;2023-05-10T00:53:34;1.40;;;0.80;;
62258;SDS011;48241;48.824;10.102;2023-05-10T00:56:00;2.28;;;1.08;;
62258;SDS011;48241;48.824;10.102;2023-05-10T00:58:26;1.52;;;1.10;;
62258;SDS011;48241;48.824;10.102;2023-05-10T01:00:54;1.70;;;0.98;;
62258;SDS011;48241;48.824;10.102;2023-05-10T01:03:21;1.15;;;1.02;;
62258;SDS011;48241;48.824;10.102;2023-05-10T01:05:46;4.10;;;1.08;;
62258;SDS011;48241;48.824;10.102;2023-05-10T01:08:12;2.78;;;1.00;;
62258;SDS011;48241;48.824;10.102;2023-05-10T01:10:37;1.40;;;1.10;;
62258;SDS011;48241;48.824;10.102;2023-05-10T01:13:03;2.38;;;0.90;;
62258;SDS011;48241;48.824;10.102;2023-05-10T01:15:29;3.60;;;1.13;;
62258;SDS011;48241;48.824;10.102;2023-05-10T01:17:55;1.55;;;1.25;;
62258;SDS011;48241;48.824;10.102;2023-05-10T01:20:21;2.63;;;1.50;;
62258;SDS011;48241;48.824;10.102;2023-05-10T01:23:04;4.45;;;1.58;;
62258;SDS011;48241;48.824;10.102;2023-05-10T01:26:05;2.33;;;0.60;;
62258;SDS011;48241;48.824;10.102;2023-05-10T01:31:49;2.90;;;0.93;;
62258;SDS011;48241;48.824;10.102;2023-05-10T01:34:35;1.20;;;0.65;;
62258;SDS011;48241;48.824;10.102;2023-05-10T01:37:13;1.23;;;0.70;;
62258;SDS011;48241;48.824;10.102;2023-05-10T01:39:45;0.77;;;0.60;;
62258;SDS011;48241;48.824;10.102;2023-05-10T01:42:35;1.52;;;0.63;;
62258;SDS011;48241;48.824;10.102;2023-05-10T01:45:28;0.40;;;0.40;;
62258;SDS011;48241;48.824;10.102;2023-05-10T01:48:06;1.08;;;0.30;;
62258;SDS011;48241;48.824;10.102;2023-05-10T01:50:34;1.65;;;0.32;;
62258;SDS011;48241;48.824;10.102;2023-05-10T01:53:02;0.40;;;0.32;;
62258;SDS011;48241;48.824;10.102;2023-05-10T01:55:32;1.00;;;0.40;;
62258;SDS011;48241;48.824;10.102;2023-05-10T01:58:10;1.85;;;0.50;;
62258;SDS011;48241;48.824;10.102;2023-05-10T02:00:43;0.40;;;0.40;;
62258;SDS011;48241;48.824;10.102;2023-05-10T02:03:10;0.30;;;0.30;;
62258;SDS011;48241;48.824;10.102;2023-05-10T02:05:37;0.60;;;0.40;;
62258;SDS011;48241;48.824;10.102;2023-05-10T02:08:07;1.88;;;0.70;;
62258;SDS011;48241;48.824;10.102;2023-05-10T02:10:34;1.58;;;0.60;;
62258;SDS011;48241;48.824;10.102;2023-05-10T02:13:00;0.80;;;0.60;;
62258;SDS011;48241;48.824;10.102;2023-05-10T02:15:27;0.50;;;0.50;;
62258;SDS011;48241;48.824;10.102;2023-05-10T02:17:55;1.10;;;0.50;;
62258;SDS011;48241;48.824;10.102;2023-05-10T02:20:22;0.60;;;0.60;;
62258;SDS011;48241;48.824;10.102;2023-05-10T02:22:50;2.72;;;0.65;;
62258;SDS011;48241;48.824;10.102;2023-05-10T02:25:17;3.17;;;0.60;;
62258;SDS011;48241;48.824;10.102;2023-05-10T02:27:45;3.95;;;0.70;;
62258;SDS011;48241;48.824;10.102;2023-05-10T02:30:12;5.53;;;0.60;;
62258;SDS011;48241;48.824;10.102;2023-05-10T02:32:38;0.50;;;0.50;;
62258;SDS011;48241;48.824;10.102;2023-05-10T02:35:05;0.50;;;0.50;;
62258;SDS011;48241;48.824;10.102;2023-05-10T02:37:32;0.30;;;0.30;;
62258;SDS011;48241;48.824;10.102;2023-05-10T02:39:59;0.55;;;0.50;;
62258;SDS011;48241;48.824;10.102;2023-05-10T02:42:29;0.70;;;0.70;;
62258;SDS011;48241;48.824;10.102;2023-05-10T02:44:59;1.85;;;0.80;;
62258;SDS011;48241;48.824;10.102;2023-05-10T02:47:26;0.90;;;0.80;;
62258;SDS011;48241;48.824;10.102;2023-05-10T02:49:52;3.55;;;0.80;;
62258;SDS011;48241;48.824;10.102;2023-05-10T02:52:23;1.05;;;1.00;;
62258;SDS011;48241;48.824;10.102;2023-05-10T02:54:54;0.80;;;0.80;;
62258;SDS011;48241;48.824;10.102;2023-05-10T02:57:27;1.25;;;0.93;;
62258;SDS011;48241;48.824;10.102;2023-05-10T02:59:56;2.55;;;1.27;;
62258;SDS011;48241;48.824;10.102;2023-05-10T03:02:22;1.35;;;1.17;;
62258;SDS011;48241;48.824;10.102;2023-05-10T03:04:48;1.95;;;1.40;;
62258;SDS011;48241;48.824;10.102;2023-05-10T03:07:13;1.55;;;1.45;;
62258;SDS011;48241;48.824;10.102;2023-05-10T03:09:39;1.60;;;1.50;;
62258;SDS011;48241;48.824;10.102;2023-05-10T03:12:15;1.85;;;1.63;;
62258;SDS011;48241;48.824;10.102;2023-05-10T03:15:01;1.98;;;1.88;;
62258;SDS011;48241;48.824;10.102;2023-05-10T03:17:37;3.35;;;2.10;;
62258;SDS011;48241;48.824;10.102;2023-05-10T03:20:16;3.58;;;2.38;;
62258;SDS011;48241;48.824;10.102;2023-05-10T03:22:47;3.30;;;2.53;;
62258;SDS011;48241;48.824;10.102;2023-05-10T03:25:17;3.58;;;2.47;;
62258;SDS011;48241;48.824;10.102;2023-05-10T03:27:45;5.75;;;2.70;;
62258;SDS011;48241;48.824;10.102;2023-05-10T03:30:12;2.75;;;2.55;;
62258;SDS011;48241;48.824;10.102;2023-05-10T03:32:38;3.15;;;2.63;;
62258;SDS011;48241;48.824;10.102;2023-05-10T03:35:07;3.15;;;2.80;;
62258;SDS011;48241;48.824;10.102;2023-05-10T03:37:34;3.95;;;2.58;;
62258;SDS011;48241;48.824;10.102;2023-05-10T03:40:00;2.45;;;2.25;;
62258;SDS011;48241;48.824;10.102;2023-05-10T03:42:26;3.75;;;2.50;;
62258;SDS011;48241;48.824;10.102;2023-05-10T03:44:52;3.15;;;2.75;;
62258;SDS011;48241;48.824;10.102;2023-05-10T03:47:17;2.97;;;2.67;;
62258;SDS011;48241;48.824;10.102;2023-05-10T03:49:43;2.70;;;2.50;;
62258;SDS011;48241;48.824;10.102;2023-05-10T03:52:08;2.92;;;2.63;;
62258;SDS011;48241;48.824;10.102;2023-05-10T03:54:34;3.97;;;2.75;;
62258;SDS011;48241;48.824;10.102;2023-05-10T03:57:00;3.20;;;2.60;;
62258;SDS011;48241;48.824;10.102;2023-05-10T03:59:26;2.78;;;2.58;;
62258;SDS011;48241;48.824;10.102;2023-05-10T04:01:51;2.75;;;2.50;;
62258;SDS011;48241;48.824;10.102;2023-05-10T04:04:17;3.25;;;2.95;;
62258;SDS011;48241;48.824;10.102;2023-05-10T04:06:43;3.20;;;2.78;;
62258;SDS011;48241;48.824;10.102;2023-05-10T04:09:09;3.10;;;2.80;;
62258;SDS011;48241;48.824;10.102;2023-05-10T04:11:35;3.33;;;2.58;;
62258;SDS011;48241;48.824;10.102;2023-05-10T04:14:01;4.93;;;2.60;;
62258;SDS011;48241;48.824;10.102;2023-05-10T04:16:26;3.30;;;2.88;;
62258;SDS011;48241;48.824;10.102;2023-05-10T04:18:52;3.70;;;3.10;;
62258;SDS011;48241;48.824;10.102;2023-05-10T04:21:18;3.28;;;2.97;;
62258;SDS011;48241;48.824;10.102;2023-05-10T04:23:43;3.47;;;3.15;;
62258;SDS011;48241;48.824;10.102;2023-05-10T04:26:09;10.27;;;3.33;;
62258;SDS011;48241;48.824;10.102;2023-05-10T04:28:35;3.85;;;3.33;;
62258;SDS011;48241;48.824;10.102;2023-05-10T04:31:03;5.05;;;3.35;;
62258;SDS011;48241;48.824;10.102;2023-05-10T04:33:30;4.60;;;3.20;;
62258;SDS011;48241;48.824;10.102;2023-05-10T04:35:56;4.53;;;3.47;;
62258;SDS011;48241;48.824;10.102;2023-05-10T04:38:21;3.95;;;3.60;;
62258;SDS011;48241;48.824;10.102;2023-05-10T04:40:47;6.00;;;3.55;;
62258;SDS011;48241;48.824;10.102;2023-05-10T04:43:12;4.18;;;3.60;;
62258;SDS011;48241;48.824;10.102;2023-05-10T04:45:38;4.70;;;3.88;;
62258;SDS011;48241;48.824;10.102;2023-05-10T04:48:03;4.32;;;3.80;;
62258;SDS011;48241;48.824;10.102;2023-05-10T04:50:29;4.25;;;3.42;;
62258;SDS011;48241;48.824;10.102;2023-05-10T04:52:55;4.43;;;4.03;;
62258;SDS011;48241;48.824;10.102;2023-05-10T04:55:20;5.20;;;4.43;;
62258;SDS011;48241;48.824;10.102;2023-05-10T04:57:46;5.20;;;4.70;;
62258;SDS011;48241;48.824;10.102;2023-05-10T05:00:12;4.85;;;4.45;;
62258;SDS011;48241;48.824;10.102;2023-05-10T05:02:38;4.82;;;4.30;;
62258;SDS011;48241;48.824;10.102;2023-05-10T05:05:03;4.60;;;4.20;;
62258;SDS011;48241;48.824;10.102;2023-05-10T05:07:29;4.80;;;4.30;;
62258;SDS011;48241;48.824;10.102;2023-05-10T05:09:55;4.90;;;4.40;;
62258;SDS011;48241;48.824;10.102;2023-05-10T05:12:21;4.90;;;4.22;;
62258;SDS011;48241;48.824;10.102;2023-05-10T05:14:46;5.03;;;4.40;;
62258;SDS011;48241;48.824;10.102;2023-05-10T05:17:15;5.40;;;4.32;;
62258;SDS011;48241;48.824;10.102;2023-05-10T05:19:41;5.22;;;4.72;;
62258;SDS011;48241;48.824;10.102;2023-05-10T05:22:06;4.80;;;4.35;;
62258;SDS011;48241;48.824;10.102;2023-05-10T05:24:36;4.80;;;4.30;;
62258;SDS011;48241;48.824;10.102;2023-05-10T05:27:22;4.43;;;3.83;;
62258;SDS011;48241;48.824;10.102;2023-05-10T05:29:52;3.97;;;3.67;;
62258;SDS011;48241;48.824;10.102;2023-05-10T05:32:33;5.10;;;3.30;;
62258;SDS011;48241;48.824;10.102;2023-05-10T05:34:59;4.93;;;3.67;;
62258;SDS011;48241;48.824;10.102;2023-05-10T05:37:27;3.88;;;2.83;;
62258;SDS011;48241;48.824;10.102;2023-05-10T05:39:53;2.60;;;2.40;;
62258;SDS011;48241;48.824;10.102;2023-05-10T05:42:19;2.53;;;2.33;;
62258;SDS011;48241;48.824;10.102;2023-05-10T05:44:54;3.92;;;2.65;;
62258;SDS011;48241;48.824;10.102;2023-05-10T05:47:20;2.65;;;2.45;;
62258;SDS011;48241;48.824;10.102;2023-05-10T05:49:46;3.05;;;2.47;;
62258;SDS011;48241;48.824;10.102;2023-05-10T05:52:12;2.88;;;2.25;;
62258;SDS011;48241;48.824;10.102;2023-05-10T05:54:40;2.70;;;2.42;;
62258;SDS011;48241;48.824;10.102;2023-05-10T05:57:06;2.50;;;2.30;;
62258;SDS011;48241;48.824;10.102;2023-05-10T05:59:32;2.38;;;2.05;;
62258;SDS011;48241;48.824;10.102;2023-05-10T06:01:58;2.22;;;2.03;;
62258;SDS011;48241;48.824;10.102;2023-05-10T06:04:23;2.13;;;1.92;;
62258;SDS011;48241;48.824;10.102;2023-05-10T06:09:30;2.90;;;2.00;;
62258;SDS011;48241;48.824;10.102;2023-05-10T06:11:56;3.47;;;1.90;;
62258;SDS011;48241;48.824;10.102;2023-05-10T06:14:25;2.70;;;1.83;;
62258;SDS011;48241;48.824;10.102;2023-05-10T06:17:02;2.30;;;2.10;;
62258;SDS011;48241;48.824;10.102;2023-05-10T06:19:29;2.42;;;1.88;;
62258;SDS011;48241;48.824;10.102;2023-05-10T06:21:58;2.88;;;2.08;;
62258;SDS011;48241;48.824;10.102;2023-05-10T06:24:29;2.60;;;2.10;;
62258;SDS011;48241;48.824;10.102;2023-05-10T06:26:58;2.45;;;1.40;;
62258;SDS011;48241;48.824;10.102;2023-05-10T06:29:28;2.63;;;1.50;;
62258;SDS011;48241;48.824;10.102;2023-05-10T06:32:08;2.40;;;1.90;;
62258;SDS011;48241;48.824;10.102;2023-05-10T06:34:34;2.38;;;1.50;;
62258;SDS011;48241;48.824;10.102;2023-05-10T06:40:02;3.10;;;1.70;;
62258;SDS011;48241;48.824;10.102;2023-05-10T06:42:37;2.03;;;1.80;;
62258;SDS011;48241;48.824;10.102;2023-05-10T06:45:24;3.80;;;1.80;;
62258;SDS011;48241;48.824;10.102;2023-05-10T07:01:12;2.40;;;1.77;;
62258;SDS011;48241;48.824;10.102;2023-05-10T07:03:40;3.40;;;2.00;;
62258;SDS011;48241;48.824;10.102;2023-05-10T07:09:28;2.17;;;1.90;;
62258;SDS011;48241;48.824;10.102;2023-05-10T07:15:53;3.63;;;2.10;;
62258;SDS011;48241;48.824;10.102;2023-05-10T07:50:32;2.38;;;2.15;;
62258;SDS011;48241;48.824;10.102;2023-05-10T07:53:01;3.78;;;1.70;;
62258;SDS011;48241;48.824;10.102;2023-05-10T07:58:23;3.38;;;1.58;;
62258;SDS011;48241;48.824;10.102;2023-05-10T08:44:16;2.10;;;1.90;;
62258;SDS011;48241;48.824;10.102;2023-05-10T08:46:43;3.08;;;2.00;;
62258;SDS011;48241;48.824;10.102;2023-05-10T08:49:12;2.30;;;1.60;;
62258;SDS011;48241;48.824;10.102;2023-05-10T08:51:41;2.10;;;1.65;;
62258;SDS011;48241;48.824;10.102;2023-05-10T08:54:11;3.67;;;1.75;;
62258;SDS011;48241;48.824;10.102;2023-05-10T08:56:38;2.58;;;1.65;;
62258;SDS011;48241;48.824;10.102;2023-05-10T08:59:04;2.63;;;1.40;;
62258;SDS011;48241;48.824;10.102;2023-05-10T09:01:30;1.38;;;1.27;;
62258;SDS011;48241;48.824;10.102;2023-05-10T09:03:57;1.88;;;1.33;;
62258;SDS011;48241;48.824;10.102;2023-05-10T09:06:23;2.05;;;1.25;;
62258;SDS011;48241;48.824;10.102;2023-05-10T09:08:49;1.70;;;1.50;;
62258;SDS011;48241;48.824;10.102;2023-05-10T09:11:15;2.22;;;1.20;;
62258;SDS011;48241;48.824;10.102;2023-05-10T09:13:42;2.90;;;1.30;;
62258;SDS011;48241;48.824;10.102;2023-05-10T09:16:08;1.95;;;1.10;;
62258;SDS011;48241;48.824;10.102;2023-05-10T09:18:34;4.63;;;1.13;;
62258;SDS011;48241;48.824;10.102;2023-05-10T09:21:00;3.08;;;0.90;;
62258;SDS011;48241;48.824;10.102;2023-05-10T09:23:26;1.15;;;1.05;;
62258;SDS011;48241;48.824;10.102;2023-05-10T09:26:05;1.45;;;1.00;;
62258;SDS011;48241;48.824;10.102;2023-05-10T09:28:32;4.18;;;1.45;;
62258;SDS011;48241;48.824;10.102;2023-05-10T09:31:17;4.68;;;1.65;;
62258;SDS011;48241;48.824;10.102;2023-05-10T09:33:46;2.75;;;1.42;;
62258;SDS011;48241;48.824;10.102;2023-05-10T09:36:13;2.17;;;1.70;;
62258;SDS011;48241;48.824;10.102;2023-05-10T09:38:46;1.88;;;1.27;;
62258;SDS011;48241;48.824;10.102;2023-05-10T09:41:18;5.68;;;1.35;;
62258;SDS011;48241;48.824;10.102;2023-05-10T09:43:45;2.47;;;1.52;;
62258;SDS011;48241;48.824;10.102;2023-05-10T09:46:11;2.58;;;1.98;;
62258;SDS011;48241;48.824;10.102;2023-05-10T09:48:40;2.90;;;1.70;;
62258;SDS011;48241;48.824;10.102;2023-05-10T09:51:07;2.20;;;1.40;;
62258;SDS011;48241;48.824;10.102;2023-05-10T09:53:36;2.80;;;1.40;;
62258;SDS011;48241;48.824;10.102;2023-05-10T09:56:04;1.80;;;1.45;;
62258;SDS011;48241;48.824;10.102;2023-05-10T09:58:30;1.55;;;1.40;;
62258;SDS011;48241;48.824;10.102;2023-05-10T10:00:56;2.08;;;1.80;;
62258;SDS011;48241;48.824;10.102;2023-05-10T10:03:22;2.22;;;1.60;;
62258;SDS011;48241;48.824;10.102;2023-05-10T10:05:49;2.47;;;1.50;;
62258;SDS011;48241;48.824;10.102;2023-05-10T10:08:15;1.73;;;1.40;;
62258;SDS011;48241;48.824;10.102;2023-05-10T10:10:41;1.20;;;1.10;;
62258;SDS011;48241;48.824;10.102;2023-05-10T10:13:10;3.50;;;1.20;;
62258;SDS011;48241;48.824;10.102;2023-05-10T10:15:35;2.15;;;1.02;;
62258;SDS011;48241;48.824;10.102;2023-05-10T10:18:01;2.17;;;1.17;;
62258;SDS011;48241;48.824;10.102;2023-05-10T10:20:29;1.50;;;1.10;;
62258;SDS011;48241;48.824;10.102;2023-05-10T10:22:54;2.30;;;1.10;;
62258;SDS011;48241;48.824;10.102;2023-05-10T10:25:20;1.50;;;1.08;;
62258;SDS011;48241;48.824;10.102;2023-05-10T10:33:18;2.03;;;1.20;;
62258;SDS011;48241;48.824;10.102;2023-05-10T10:35:58;2.25;;;1.40;;
62258;SDS011;48241;48.824;10.102;2023-05-10T10:38:25;1.75;;;1.08;;
62258;SDS011;48241;48.824;10.102;2023-05-10T10:41:10;0.88;;;0.80;;
62258;SDS011;48241;48.824;10.102;2023-05-10T10:44:13;1.30;;;0.85;;
62258;SDS011;48241;48.824;10.102;2023-05-10T10:52:21;1.35;;;0.90;;
62258;SDS011;48241;48.824;10.102;2023-05-10T10:57:48;2.65;;;0.80;;
62258;SDS011;48241;48.824;10.102;2023-05-10T11:00:21;0.73;;;0.65;;
62258;SDS011;48241;48.824;10.102;2023-05-10T11:02:52;0.70;;;0.70;;
62258;SDS011;48241;48.824;10.102;2023-05-10T11:07:53;2.88;;;0.82;;
62258;SDS011;48241;48.824;10.102;2023-05-10T11:10:23;1.13;;;0.73;;
62258;SDS011;48241;48.824;10.102;2023-05-10T11:13:00;2.38;;;0.80;;
62258;SDS011;48241;48.824;10.102;2023-05-10T11:15:38;0.93;;;0.85;;
62258;SDS011;48241;48.824;10.102;2023-05-10T11:20:51;0.65;;;0.65;;
62258;SDS011;48241;48.824;10.102;2023-05-10T11:23:47;1.17;;;0.70;;
62258;SDS011;48241;48.824;10.102;2023-05-10T11:26:15;2.40;;;0.70;;
62258;SDS011;48241;48.824;10.102;2023-05-10T11:28:41;1.02;;;0.70;;
62258;SDS011;48241;48.824;10.102;2023-05-10T11:31:14;2.65;;;0.60;;
62258;SDS011;48241;48.824;10.102;2023-05-10T11:33:47;0.75;;;0.50;;
62258;SDS011;48241;48.824;10.102;2023-05-10T11:36:15;1.45;;;0.60;;
62258;SDS011;48241;48.824;10.102;2023-05-10T11:38:52;0.70;;;0.40;;
62258;SDS011;48241;48.824;10.102;2023-05-10T11:41:19;2.38;;;0.60;;
62258;SDS011;48241;48.824;10.102;2023-05-10T11:43:51;2.25;;;0.68;;
62258;SDS011;48241;48.824;10.102;2023-05-10T11:46:21;3.92;;;0.60;;
62258;SDS011;48241;48.824;10.102;2023-05-10T11:48:49;1.27;;;0.50;;
62258;SDS011;48241;48.824;10.102;2023-05-10T11:51:19;1.48;;;0.60;;
62258;SDS011;48241;48.824;10.102;2023-05-10T11:53:49;0.40;;;0.40;;
62258;SDS011;48241;48.824;10.102;2023-05-10T11:56:16;1.50;;;0.50;;
62258;SDS011;48241;48.824;10.102;2023-05-10T11:58:41;1.15;;;0.60;;
62258;SDS011;48241;48.824;10.102;2023-05-10T12:01:07;1.50;;;0.60;;
62258;SDS011;48241;48.824;10.102;2023-05-10T12:03:35;1.23;;;0.70;;
62258;SDS011;48241;48.824;10.102;2023-05-10T12:06:01;1.85;;;0.68;;
62258;SDS011;48241;48.824;10.102;2023-05-10T12:08:28;1.40;;;0.73;;
62258;SDS011;48241;48.824;10.102;2023-05-10T12:11:07;1.50;;;0.73;;
62258;SDS011;48241;48.824;10.102;2023-05-10T12:13:38;1.38;;;0.68;;
62258;SDS011;48241;48.824;10.102;2023-05-10T12:16:14;1.50;;;0.57;;
62258;SDS011;48241;48.824;10.102;2023-05-10T12:18:41;0.75;;;0.70;;
62258;SDS011;48241;48.824;10.102;2023-05-10T12:21:10;2.90;;;0.70;;
62258;SDS011;48241;48.824;10.102;2023-05-10T12:23:37;1.00;;;0.65;;
62258;SDS011;48241;48.824;10.102;2023-05-10T12:26:03;1.50;;;0.80;;
62258;SDS011;48241;48.824;10.102;2023-05-10T12:28:32;1.10;;;0.63;;
62258;SDS011;48241;48.824;10.102;2023-05-10T12:31:01;1.63;;;0.70;;
62258;SDS011;48241;48.824;10.102;2023-05-10T12:33:35;3.83;;;0.85;;
62258;SDS011;48241;48.824;10.102;2023-05-10T12:36:03;1.00;;;1.00;;
62258;SDS011;48241;48.824;10.102;2023-05-10T12:41:03;2.35;;;0.90;;
62258;SDS011;48241;48.824;10.102;2023-05-10T12:43:33;1.77;;;1.05;;
62258;SDS011;48241;48.824;10.102;2023-05-10T12:48:32;2.03;;;1.33;;
62258;SDS011;48241;48.824;10.102;2023-05-10T12:50:59;2.95;;;1.13;;
62258;SDS011;48241;48.824;10.102;2023-05-10T12:53:26;3.03;;;0.90;;
62258;SDS011;48241;48.824;10.102;2023-05-10T12:55:51;2.30;;;0.90;;
62258;SDS011;48241;48.824;10.102;2023-05-10T12:58:18;3.08;;;0.75;;
62258;SDS011;48241;48.824;10.102;2023-05-10T13:00:43;0.85;;;0.70;;
62258;SDS011;48241;48.824;10.102;2023-05-10T13:03:09;2.38;;;1.20;;
62258;SDS011;48241;48.824;10.102;2023-05-10T13:05:35;4.63;;;1.20;;
62258;SDS011;48241;48.824;10.102;2023-05-10T13:08:01;4.50;;;0.98;;
62258;SDS011;48241;48.824;10.102;2023-05-10T13:10:28;1.25;;;0.80;;
62258;SDS011;48241;48.824;10.102;2023-05-10T13:12:55;1.77;;;0.73;;
62258;SDS011;48241;48.824;10.102;2023-05-10T13:15:22;3.90;;;0.60;;
62258;SDS011;48241;48.824;10.102;2023-05-10T13:17:47;1.88;;;0.60;;
62258;SDS011;48241;48.824;10.102;2023-05-10T13:20:13;1.55;;;0.80;;
62258;SDS011;48241;48.824;10.102;2023-05-10T13:22:40;0.85;;;0.63;;
62258;SDS011;48241;48.824;10.102;2023-05-10T13:25:06;1.85;;;0.80;;
62258;SDS011;48241;48.824;10.102;2023-05-10T13:27:32;3.28;;;0.68;;
62258;SDS011;48241;48.824;10.102;2023-05-10T13:29:58;1.77;;;0.80;;
62258;SDS011;48241;48.824;10.102;2023-05-10T13:32:24;1.70;;;0.80;;
62258;SDS011;48241;48.824;10.102;2023-05-10T13:34:50;2.50;;;0.90;;
62258;SDS011;48241;48.824;10.102;2023-05-10T13:37:16;1.67;;;0.82;;
62258;SDS011;48241;48.824;10.102;2023-05-10T13:39:42;1.02;;;0.80;;
62258;SDS011;48241;48.824;10.102;2023-05-10T13:42:07;5.38;;;0.90;;
62258;SDS011;48241;48.824;10.102;2023-05-10T13:44:33;3.20;;;1.10;;
62258;SDS011;48241;48.824;10.102;2023-05-10T13:46:59;3.25;;;0.98;;
62258;SDS011;48241;48.824;10.102;2023-05-10T13:49:24;1.52;;;0.80;;
62258;SDS011;48241;48.824;10.102;2023-05-10T13:51:50;0.93;;;0.80;;
62258;SDS011;48241;48.824;10.102;2023-05-10T13:54:16;2.15;;;0.90;;
62258;SDS011;48241;48.824;10.102;2023-05-10T13:56:44;2.75;;;0.90;;
62258;SDS011;48241;48.824;10.102;2023-05-10T13:59:10;2.00;;;0.80;;
62258;SDS011;48241;48.824;10.102;2023-05-10T14:01:35;0.80;;;0.80;;
62258;SDS011;48241;48.824;10.102;2023-05-10T14:04:01;1.35;;;0.90;;
62258;SDS011;48241;48.824;10.102;2023-05-10T14:06:27;0.82;;;0.82;;
62258;SDS011;48241;48.824;10.102;2023-05-10T14:08:52;2.10;;;1.00;;
62258;SDS011;48241;48.824;10.102;2023-05-10T14:11:18;1.75;;;0.93;;
62258;SDS011;48241;48.824;10.102;2023-05-10T14:13:44;2.08;;;0.80;;
62258;SDS011;48241;48.824;10.102;2023-05-10T14:16:10;1.02;;;0.80;;
62258;SDS011;48241;48.824;10.102;2023-05-10T14:18:36;1.95;;;0.90;;
62258;SDS011;48241;48.824;10.102;2023-05-10T14:21:02;3.15;;;0.73;;
62258;SDS011;48241;48.824;10.102;2023-05-10T14:23:28;1.85;;;0.73;;
62258;SDS011;48241;48.824;10.102;2023-05-10T14:25:55;1.98;;;0.80;;
62258;SDS011;48241;48.824;10.102;2023-05-10T14:28:20;1.05;;;0.88;;
62258;SDS011;48241;48.824;10.102;2023-05-10T14:30:47;1.75;;;1.00;;
62258;SDS011;48241;48.824;10.102;2023-05-10T14:33:13;2.83;;;0.80;;
62258;SDS011;48241;48.824;10.102;2023-05-10T14:35:38;2.28;;;1.02;;
62258;SDS011;48241;48.824;10.102;2023-05-10T14:38:04;2.90;;;1.00;;
62258;SDS011;48241;48.824;10.102;2023-05-10T14:40:30;1.88;;;0.80;;
62258;SDS011;48241;48.824;10.102;2023-05-10T14:42:56;2.85;;;1.10;;
62258;SDS011;48241;48.824;10.102;2023-05-10T14:45:22;1.35;;;1.00;;
62258;SDS011;48241;48.824;10.102;2023-05-10T14:47:48;2.33;;;0.90;;
62258;SDS011;48241;48.824;10.102;2023-05-10T14:50:17;3.33;;;1.05;;
62258;SDS011;48241;48.824;10.102;2023-05-10T14:52:45;1.55;;;1.00;;
62258;SDS011;48241;48.824;10.102;2023-05-10T14:55:14;2.53;;;1.00;;
62258;SDS011;48241;48.824;10.102;2023-05-10T14:57:49;2.20;;;1.00;;
62258;SDS011;48241;48.824;10.102;2023-05-10T15:00:15;2.70;;;1.00;;
62258;SDS011;48241;48.824;10.102;2023-05-10T15:02:41;1.52;;;0.88;;
62258;SDS011;48241;48.824;10.102;2023-05-10T15:05:07;4.03;;;1.10;;
62258;SDS011;48241;48.824;10.102;2023-05-10T15:07:32;2.03;;;0.93;;
62258;SDS011;48241;48.824;10.102;2023-05-10T15:09:58;3.22;;;0.98;;
62258;SDS011;48241;48.824;10.102;2023-05-10T15:12:23;1.63;;;0.90;;
62258;SDS011;48241;48.824;10.102;2023-05-10T15:14:49;2.38;;;1.10;;
62258;SDS011;48241;48.824;10.102;2023-05-10T15:17:14;2.13;;;1.08;;
62258;SDS011;48241;48.824;10.102;2023-05-10T15:19:41;2.00;;;1.00;;
62258;SDS011;48241;48.824;10.102;2023-05-10T15:22:07;3.53;;;1.00;;
62258;SDS011;48241;48.824;10.102;2023-05-10T15:24:32;2.22;;;0.82;;
62258;SDS011;48241;48.824;10.102;2023-05-10T15:26:58;1.60;;;1.00;;
62258;SDS011;48241;48.824;10.102;2023-05-10T15:29:23;3.28;;;0.90;;
62258;SDS011;48241;48.824;10.102;2023-05-10T15:31:49;2.15;;;1.00;;
62258;SDS011;48241;48.824;10.102;2023-05-10T15:34:16;2.00;;;1.00;;
62258;SDS011;48241;48.824;10.102;2023-05-10T15:36:42;2.05;;;1.10;;
62258;SDS011;48241;48.824;10.102;2023-05-10T15:39:09;2.10;;;1.15;;
62258;SDS011;48241;48.824;10.102;2023-05-10T15:41:35;3.90;;;1.33;;
62258;SDS011;48241;48.824;10.102;2023-05-10T15:44:01;3.80;;;1.20;;
62258;SDS011;48241;48.824;10.102;2023-05-10T15:46:29;1.85;;;0.98;;
62258;SDS011;48241;48.824;10.102;2023-05-10T15:48:58;3.45;;;1.02;;
62258;SDS011;48241;48.824;10.102;2023-05-10T15:51:24;3.20;;;1.40;;
62258;SDS011;48241;48.824;10.102;2023-05-10T15:53:50;2.80;;;1.50;;
62258;SDS011;48241;48.824;10.102;2023-05-10T15:56:16;2.85;;;1.27;;
62258;SDS011;48241;48.824;10.102;2023-05-10T15:58:41;2.92;;;1.20;;
62258;SDS011;48241;48.824;10.102;2023-05-10T16:01:08;2.13;;;1.30;;
62258;SDS011;48241;48.824;10.102;2023-05-10T16:03:35;4.78;;;1.33;;
62258;SDS011;48241;48.824;10.102;2023-05-10T16:06:01;4.50;;;1.20;;
62258;SDS011;48241;48.824;10.102;2023-05-10T16:08:27;2.22;;;1.13;;
62258;SDS011;48241;48.824;10.102;2023-05-10T16:10:57;1.85;;;1.15;;
62258;SDS011;48241;48.824;10.102;2023-05-10T16:13:23;3.45;;;1.35;;
62258;SDS011;48241;48.824;10.102;2023-05-10T16:15:49;3.05;;;1.38;;
62258;SDS011;48241;48.824;10.102;2023-05-10T16:18:14;3.67;;;1.50;;
62258;SDS011;48241;48.824;10.102;2023-05-10T16:20:41;3.83;;;1.40;;
62258;SDS011;48241;48.824;10.102;2023-05-10T16:23:08;3.08;;;1.35;;
62258;SDS011;48241;48.824;10.102;2023-05-10T16:25:33;2.10;;;1.23;;
62258;SDS011;48241;48.824;10.102;2023-05-10T16:27:59;2.70;;;1.20;;
62258;SDS011;48241;48.824;10.102;2023-05-10T16:30:25;4.13;;;1.40;;
62258;SDS011;48241;48.824;10.102;2023-05-10T16:32:54;3.60;;;1.33;;
62258;SDS011;48241;48.824;10.102;2023-05-10T16:35:22;4.05;;;1.40;;
62258;SDS011;48241;48.824;10.102;2023-05-10T16:37:51;3.75;;;1.35;;
62258;SDS011;48241;48.824;10.102;2023-05-10T16:40:17;6.30;;;1.38;;
62258;SDS011;48241;48.824;10.102;2023-05-10T16:42:43;3.05;;;1.20;;
62258;SDS011;48241;48.824;10.102;2023-05-10T16:45:09;2.33;;;1.10;;
62258;SDS011;48241;48.824;10.102;2023-05-10T16:47:35;5.60;;;1.40;;
62258;SDS011;48241;48.824;10.102;2023-05-10T16:50:02;3.72;;;1.05;;